createdAt,value
2018-04-16T00:02:25.412Z,3.40
2018-04-16T00:04:51.847Z,3.40
2018-04-16T00:07:18.285Z,3.23
2018-04-16T00:09:44.717Z,3.20
2018-04-16T00:12:11.270Z,3.00
2018-04-16T00:14:37.651Z,3.30
2018-04-16T00:17:04.095Z,3.57
2018-04-16T00:19:30.521Z,3.10
2018-04-16T00:21:56.932Z,3.60
2018-04-16T00:24:23.304Z,3.67
2018-04-16T00:26:49.820Z,3.07
2018-04-16T00:29:16.281Z,3.10
2018-04-16T00:31:48.779Z,3.10
2018-04-16T00:34:21.996Z,3.07
2018-04-16T00:36:54.570Z,2.80
2018-04-16T00:39:27.016Z,3.50
2018-04-16T00:42:00.070Z,3.10
2018-04-16T00:44:32.564Z,3.17
2018-04-16T00:47:04.989Z,2.97
2018-04-16T00:49:37.501Z,3.27
2018-04-16T00:52:09.904Z,2.97
2018-04-16T00:54:42.484Z,3.10
2018-04-16T00:57:14.813Z,2.50
2018-04-16T00:59:47.309Z,2.70
2018-04-16T01:02:19.616Z,2.90
2018-04-16T01:04:51.988Z,3.00
2018-04-16T01:07:24.526Z,2.90
2018-04-16T01:09:57.722Z,3.08
2018-04-16T01:12:30.904Z,2.77
2018-04-16T01:15:04.056Z,2.60
2018-04-16T01:17:36.632Z,2.77
2018-04-16T01:20:09.002Z,3.17
2018-04-16T01:22:41.380Z,2.87
2018-04-16T01:25:13.839Z,2.67
2018-04-16T01:27:46.961Z,3.15
2018-04-16T01:30:19.433Z,3.30
2018-04-16T01:32:52.614Z,3.17
2018-04-16T01:35:25.116Z,2.90
2018-04-16T01:37:58.505Z,3.70
2018-04-16T01:40:31.871Z,3.57
2018-04-16T01:43:04.418Z,3.70
2018-04-16T01:45:36.973Z,3.90
2018-04-16T01:48:09.519Z,3.50
2018-04-16T01:50:41.974Z,3.33
2018-04-16T01:53:14.420Z,3.45
2018-04-16T01:55:47.553Z,3.15
2018-04-16T01:58:19.924Z,3.23
2018-04-16T02:00:52.459Z,3.03
2018-04-16T02:03:25.683Z,3.20
2018-04-16T02:05:58.403Z,3.60
2018-04-16T02:08:30.845Z,3.00
2018-04-16T02:11:04.057Z,3.15
2018-04-16T02:13:36.421Z,3.20
2018-04-16T02:16:09.668Z,3.47
2018-04-16T02:18:41.997Z,3.67
2018-04-16T02:21:14.426Z,4.03
2018-04-16T02:23:46.724Z,3.43
2018-04-16T02:26:19.132Z,4.30
2018-04-16T02:28:51.594Z,3.33
2018-04-16T02:31:24.143Z,3.65
2018-04-16T02:33:56.521Z,3.58
2018-04-16T02:36:29.044Z,3.60
2018-04-16T02:39:01.379Z,3.20
2018-04-16T02:41:34.117Z,3.20
2018-04-16T02:47:11.717Z,3.47
2018-04-16T02:49:44.219Z,3.53
2018-04-16T02:52:16.893Z,3.45
2018-04-16T02:54:50.220Z,3.40
2018-04-16T02:57:22.857Z,3.60
2018-04-16T02:59:55.226Z,2.80
2018-04-16T03:02:28.372Z,3.40
2018-04-16T03:05:00.960Z,3.35
2018-04-16T03:07:33.315Z,3.53
2018-04-16T03:10:05.680Z,2.92
2018-04-16T03:12:38.010Z,3.55
2018-04-16T03:15:11.104Z,3.30
2018-04-16T03:17:43.506Z,3.40
2018-04-16T03:20:15.994Z,3.35
2018-04-16T03:22:48.546Z,4.20
2018-04-16T03:25:20.990Z,3.20
2018-04-16T03:27:54.097Z,3.33
2018-04-16T03:30:27.298Z,3.00
2018-04-16T03:32:59.713Z,3.17
2018-04-16T03:35:32.118Z,3.05
2018-04-16T03:38:05.387Z,2.87
2018-04-16T03:40:37.718Z,2.50
2018-04-16T03:46:13.483Z,2.60
2018-04-16T03:48:53.602Z,4.05
2018-04-16T03:51:20.784Z,2.95
2018-04-16T03:53:48.041Z,2.72
2018-04-16T03:56:14.387Z,2.40
2018-04-16T03:58:40.799Z,2.30
2018-04-16T04:01:07.202Z,2.80
2018-04-16T04:03:33.629Z,2.33
2018-04-16T04:06:00.800Z,2.60
2018-04-16T04:08:27.358Z,2.65
2018-04-16T04:10:53.752Z,2.58
2018-04-16T04:13:20.903Z,3.10
2018-04-16T04:15:47.287Z,2.75
2018-04-16T04:18:13.668Z,3.92
2018-04-16T04:20:40.056Z,4.18
2018-04-16T04:23:24.712Z,2.97
2018-04-16T04:26:09.357Z,2.90
2018-04-16T04:28:54.178Z,3.25
2018-04-16T04:31:20.588Z,3.92
2018-04-16T04:33:47.784Z,3.15
2018-04-16T04:36:14.185Z,3.42
2018-04-16T04:38:41.296Z,3.30
2018-04-16T04:41:08.297Z,3.00
2018-04-16T04:43:34.722Z,2.95
2018-04-16T04:46:01.225Z,2.67
2018-04-16T04:48:28.341Z,2.62
2018-04-16T04:50:54.693Z,2.58
2018-04-16T04:53:21.074Z,3.33
2018-04-16T04:55:47.452Z,3.50
2018-04-16T04:58:14.634Z,3.67
2018-04-16T05:00:41.060Z,4.70
2018-04-16T05:03:07.459Z,3.37
2018-04-16T05:05:34.897Z,3.45
2018-04-16T05:08:01.311Z,4.80
2018-04-16T05:10:27.811Z,4.07
2018-04-16T05:12:54.244Z,4.68
2018-04-16T05:15:20.676Z,4.53
2018-04-16T05:17:47.172Z,5.00
2018-04-16T05:20:13.597Z,4.97
2018-04-16T05:22:40.040Z,5.95
2018-04-16T05:25:06.544Z,4.28
2018-04-16T05:27:32.967Z,5.90
2018-04-16T05:29:59.424Z,4.72
2018-04-16T05:32:25.927Z,4.18
2018-04-16T05:34:52.359Z,4.90
2018-04-16T05:37:18.746Z,4.60
2018-04-16T05:39:45.164Z,5.70
2018-04-16T05:42:11.666Z,4.72
2018-04-16T05:44:38.124Z,4.78
2018-04-16T05:47:04.529Z,5.00
2018-04-16T05:49:30.904Z,5.45
2018-04-16T05:51:57.336Z,5.50
2018-04-16T05:54:24.516Z,5.65
2018-04-16T05:56:51.749Z,5.05
2018-04-16T05:59:18.954Z,4.22
2018-04-16T06:01:45.464Z,4.95
2018-04-16T06:04:11.905Z,4.60
2018-04-16T06:06:39.041Z,5.15
2018-04-16T06:09:06.359Z,4.97
2018-04-16T06:11:32.818Z,6.00
2018-04-16T06:13:59.236Z,5.47
2018-04-16T06:16:25.644Z,6.00
2018-04-16T06:18:52.857Z,5.40
2018-04-16T06:21:19.242Z,5.65
2018-04-16T06:23:45.629Z,5.28
2018-04-16T06:26:12.139Z,5.85
2018-04-16T06:28:38.543Z,5.55
2018-04-16T06:31:04.983Z,5.60
2018-04-16T06:33:31.405Z,5.40
2018-04-16T06:35:57.920Z,4.45
2018-04-16T06:38:24.444Z,5.43
2018-04-16T06:40:50.870Z,5.70
2018-04-16T06:43:17.253Z,4.60
2018-04-16T06:45:43.748Z,4.90
2018-04-16T06:48:10.159Z,5.40
2018-04-16T06:50:36.607Z,5.07
2018-04-16T06:53:03.038Z,5.35
2018-04-16T06:55:30.242Z,5.60
2018-04-16T06:57:56.712Z,5.45
2018-04-16T07:00:23.885Z,5.35
2018-04-16T07:02:50.348Z,4.75
2018-04-16T07:05:16.886Z,4.95
2018-04-16T07:07:43.348Z,4.72
2018-04-16T07:10:09.735Z,4.00
2018-04-16T07:12:36.220Z,4.85
2018-04-16T07:15:03.381Z,4.22
2018-04-16T07:17:30.567Z,4.10
2018-04-16T07:19:57.039Z,3.70
2018-04-16T07:22:23.494Z,3.92
2018-04-16T07:24:50.623Z,3.40
2018-04-16T07:27:17.876Z,3.20
2018-04-16T07:29:44.271Z,3.95
2018-04-16T07:32:10.707Z,3.85
2018-04-16T07:34:37.148Z,3.30
2018-04-16T07:37:03.533Z,3.97
2018-04-16T07:39:30.690Z,3.90
2018-04-16T07:41:57.132Z,4.47
2018-04-16T18:57:10.115Z,2.77
2018-04-16T18:59:36.525Z,3.20
2018-04-16T19:02:03.110Z,2.77
2018-04-16T19:04:29.556Z,3.17
2018-04-16T19:06:56.061Z,2.50
2018-04-16T19:09:22.499Z,2.70
2018-04-16T19:11:49.893Z,3.30
2018-04-16T19:14:17.030Z,2.70
2018-04-16T19:16:43.502Z,3.10
2018-04-16T19:19:10.007Z,4.20
2018-04-16T19:21:42.438Z,3.30
2018-04-16T19:24:08.898Z,3.40
2018-04-16T19:26:35.438Z,3.90
2018-04-16T19:29:01.900Z,2.60
2018-04-16T19:31:28.517Z,3.20
2018-04-16T19:34:01.873Z,3.20
2018-04-16T19:36:28.552Z,2.90
2018-04-16T19:38:55.003Z,3.27
2018-04-16T19:41:21.497Z,2.90
2018-04-16T19:43:48.764Z,2.87
2018-04-16T19:46:15.240Z,3.77
2018-04-16T19:51:46.883Z,3.30
2018-04-16T19:54:13.368Z,4.53
2018-04-16T19:56:45.981Z,3.40
2018-04-16T19:59:13.216Z,3.03
2018-04-16T20:01:39.791Z,3.00
2018-04-16T20:04:06.384Z,3.27
2018-04-16T20:06:33.565Z,3.10
2018-04-16T20:09:10.089Z,3.30
2018-04-16T20:11:36.623Z,2.60
2018-04-16T20:14:03.101Z,2.47
2018-04-16T20:16:30.710Z,3.20
2018-04-16T20:18:57.184Z,2.50
2018-04-16T20:21:23.790Z,2.97
2018-04-16T20:23:50.218Z,3.30
2018-04-16T20:26:16.697Z,3.10
2018-04-16T20:28:43.164Z,3.10
2018-04-16T20:31:09.736Z,2.27
2018-04-16T20:33:36.191Z,3.27
2018-04-16T20:36:02.696Z,3.20
2018-04-16T20:38:32.517Z,3.00
2018-04-16T20:40:59.024Z,3.70
2018-04-16T20:43:25.494Z,3.07
2018-04-16T20:45:52.747Z,3.03
2018-04-16T20:48:19.219Z,2.90
2018-04-16T20:50:45.714Z,3.10
2018-04-16T20:53:12.219Z,2.70
2018-04-16T20:55:38.685Z,3.40
2018-04-16T20:58:05.157Z,2.73
2018-04-16T21:00:31.632Z,2.53
2018-04-16T21:02:58.828Z,3.00
2018-04-16T21:05:25.274Z,3.20
2018-04-16T21:07:51.728Z,2.50
2018-04-16T21:10:18.205Z,3.00
2018-04-16T21:12:44.647Z,2.63
2018-04-16T21:15:11.114Z,2.37
2018-04-16T21:17:37.555Z,2.50
2018-04-16T21:20:03.994Z,2.10
2018-04-16T21:22:30.473Z,2.80
2018-04-16T21:24:56.898Z,2.30
2018-04-16T21:27:23.317Z,1.90
2018-04-16T21:29:49.796Z,1.87
2018-04-16T21:32:16.218Z,2.53
2018-04-16T21:34:42.707Z,2.27
2018-04-16T21:37:09.898Z,2.43
2018-04-16T21:39:36.400Z,2.20
2018-04-16T21:42:02.806Z,4.87
2018-04-16T21:44:29.206Z,2.67
2018-04-16T21:46:55.689Z,2.10
2018-04-16T21:49:22.155Z,2.10
2018-04-16T21:51:48.592Z,2.60
2018-04-16T21:54:14.983Z,2.53
2018-04-16T21:56:42.149Z,2.10
2018-04-16T21:59:08.601Z,2.20
2018-04-16T22:01:35.041Z,2.10
2018-04-16T22:04:01.575Z,2.30
2018-04-16T22:06:28.048Z,2.60
2018-04-16T22:08:55.213Z,2.73
2018-04-16T22:11:21.673Z,5.25
2018-04-16T22:13:48.174Z,2.20
2018-04-16T22:16:14.618Z,1.92
2018-04-16T22:18:41.053Z,2.17
2018-04-16T22:21:07.485Z,2.07
2018-04-16T22:23:34.588Z,2.60
2018-04-16T22:26:00.977Z,2.63
2018-04-16T22:28:27.454Z,2.72
2018-04-16T22:30:53.923Z,1.90
2018-04-16T22:33:20.325Z,2.60
2018-04-16T22:35:47.437Z,1.90
2018-04-16T22:38:13.856Z,2.50
2018-04-16T22:40:40.308Z,2.22
2018-04-16T22:43:06.723Z,2.80
2018-04-16T22:45:33.194Z,2.75
2018-04-16T22:47:59.696Z,3.20
2018-04-16T22:50:26.137Z,3.03
2018-04-16T22:52:52.557Z,3.08
2018-04-16T22:55:19.059Z,2.65
2018-04-16T22:57:45.460Z,2.70
2018-04-16T23:00:11.952Z,3.03
2018-04-16T23:02:38.363Z,2.83
2018-04-16T23:05:04.820Z,3.10
2018-04-16T23:07:31.172Z,2.30
2018-04-16T23:09:57.591Z,2.20
2018-04-16T23:12:24.015Z,2.08
2018-04-16T23:14:52.117Z,2.30
2018-04-16T23:17:18.495Z,2.20
2018-04-16T23:19:44.879Z,2.90
2018-04-16T23:22:13.927Z,2.55
2018-04-16T23:24:40.318Z,2.22
2018-04-16T23:27:06.702Z,2.30
2018-04-16T23:29:33.102Z,2.75
2018-04-16T23:31:59.492Z,2.30
2018-04-16T23:34:25.913Z,2.35
2018-04-16T23:36:52.285Z,3.05
2018-04-16T23:39:18.686Z,3.10
2018-04-16T23:41:45.099Z,2.35
2018-04-16T23:44:11.525Z,2.45
2018-04-16T23:46:37.917Z,2.55
2018-04-16T23:49:04.389Z,2.00
2018-04-16T23:51:30.772Z,3.37
2018-04-16T23:53:57.149Z,2.10
2018-04-16T23:56:23.560Z,2.12
2018-04-16T23:58:49.935Z,2.03
